Terminal Aerodrome Forecast
Issued by NWS

Current Version | Previous Version | Graphics & Text | Print | Product List | Glossary On
Versions: 1 2 3 4 5 6 7 8 9 10 11 12 13 14
000
FTUS41 KPBZ 010856 AAA
TAFHLG
TAF AMD
KHLG 010856Z 0109/0206 VRB05KT 5SM BR OVC010
      TEMPO 0109/0113 2SM BR OVC007
     FM011300 35006KT P6SM BKN100
     FM011700 01006KT P6SM SCT050=

USA.gov is the U.S. government's official web portal to all federal, state and local government web resources and services.